sensor_id;sensor_type;location;lat;lon;timestamp;P1;durP1;ratioP1;P2;durP2;ratioP2
33108;SDS011;19481;51.118;6.940;2023-07-20T00:02:40;1.42;;;1.33;;
33108;SDS011;19481;51.118;6.940;2023-07-20T00:07:43;4.82;;;1.70;;
33108;SDS011;19481;51.118;6.940;2023-07-20T00:12:45;2.17;;;1.45;;
33108;SDS011;19481;51.118;6.940;2023-07-20T00:17:47;3.38;;;1.65;;
33108;SDS011;19481;51.118;6.940;2023-07-20T00:22:50;2.63;;;1.60;;
33108;SDS011;19481;51.118;6.940;2023-07-20T00:27:52;5.10;;;1.98;;
33108;SDS011;19481;51.118;6.940;2023-07-20T00:32:54;7.22;;;1.90;;
33108;SDS011;19481;51.118;6.940;2023-07-20T00:37:57;2.03;;;1.40;;
33108;SDS011;19481;51.118;6.940;2023-07-20T00:42:58;5.07;;;1.70;;
33108;SDS011;19481;51.118;6.940;2023-07-20T00:48:00;4.07;;;1.80;;
33108;SDS011;19481;51.118;6.940;2023-07-20T00:53:04;1.85;;;1.52;;
33108;SDS011;19481;51.118;6.940;2023-07-20T00:58:06;3.90;;;1.55;;
33108;SDS011;19481;51.118;6.940;2023-07-20T01:03:08;2.85;;;1.60;;
33108;SDS011;19481;51.118;6.940;2023-07-20T01:08:12;2.00;;;1.90;;
33108;SDS011;19481;51.118;6.940;2023-07-20T01:13:19;2.58;;;1.58;;
33108;SDS011;19481;51.118;6.940;2023-07-20T01:18:22;4.72;;;1.73;;
33108;SDS011;19481;51.118;6.940;2023-07-20T01:23:40;3.30;;;1.85;;
33108;SDS011;19481;51.118;6.940;2023-07-20T01:29:08;3.38;;;1.80;;
33108;SDS011;19481;51.118;6.940;2023-07-20T01:34:20;4.78;;;1.80;;
33108;SDS011;19481;51.118;6.940;2023-07-20T01:39:24;2.90;;;2.10;;
33108;SDS011;19481;51.118;6.940;2023-07-20T01:44:27;3.83;;;2.20;;
33108;SDS011;19481;51.118;6.940;2023-07-20T01:49:31;3.85;;;1.90;;
33108;SDS011;19481;51.118;6.940;2023-07-20T01:54:33;3.63;;;1.83;;
33108;SDS011;19481;51.118;6.940;2023-07-20T01:59:37;3.80;;;1.75;;
33108;SDS011;19481;51.118;6.940;2023-07-20T02:04:40;2.15;;;1.42;;
33108;SDS011;19481;51.118;6.940;2023-07-20T02:09:42;4.70;;;1.98;;
33108;SDS011;19481;51.118;6.940;2023-07-20T02:14:43;2.67;;;1.50;;
33108;SDS011;19481;51.118;6.940;2023-07-20T02:19:46;2.25;;;1.83;;
33108;SDS011;19481;51.118;6.940;2023-07-20T02:24:51;3.67;;;1.70;;
33108;SDS011;19481;51.118;6.940;2023-07-20T02:29:52;4.88;;;1.63;;
33108;SDS011;19481;51.118;6.940;2023-07-20T02:34:55;5.13;;;1.52;;
33108;SDS011;19481;51.118;6.940;2023-07-20T02:39:57;2.25;;;1.50;;
33108;SDS011;19481;51.118;6.940;2023-07-20T02:44:59;2.85;;;1.75;;
33108;SDS011;19481;51.118;6.940;2023-07-20T02:50:02;4.57;;;1.88;;
33108;SDS011;19481;51.118;6.940;2023-07-20T02:55:04;5.57;;;1.77;;
33108;SDS011;19481;51.118;6.940;2023-07-20T03:00:07;2.75;;;1.60;;
33108;SDS011;19481;51.118;6.940;2023-07-20T03:05:10;4.70;;;2.42;;
33108;SDS011;19481;51.118;6.940;2023-07-20T03:10:12;1.65;;;1.55;;
33108;SDS011;19481;51.118;6.940;2023-07-20T03:15:14;1.95;;;1.75;;
33108;SDS011;19481;51.118;6.940;2023-07-20T03:20:17;4.18;;;1.92;;
33108;SDS011;19481;51.118;6.940;2023-07-20T03:25:18;5.25;;;2.10;;
33108;SDS011;19481;51.118;6.940;2023-07-20T03:30:21;2.17;;;1.65;;
33108;SDS011;19481;51.118;6.940;2023-07-20T03:35:24;3.33;;;1.63;;
33108;SDS011;19481;51.118;6.940;2023-07-20T03:40:26;3.60;;;2.17;;
33108;SDS011;19481;51.118;6.940;2023-07-20T03:45:27;2.92;;;1.92;;
33108;SDS011;19481;51.118;6.940;2023-07-20T03:50:30;2.17;;;1.55;;
33108;SDS011;19481;51.118;6.940;2023-07-20T03:55:32;4.32;;;1.80;;
33108;SDS011;19481;51.118;6.940;2023-07-20T04:00:34;2.83;;;2.22;;
33108;SDS011;19481;51.118;6.940;2023-07-20T04:05:37;5.88;;;2.13;;
33108;SDS011;19481;51.118;6.940;2023-07-20T04:10:39;3.75;;;1.92;;
33108;SDS011;19481;51.118;6.940;2023-07-20T04:15:44;5.00;;;2.40;;
33108;SDS011;19481;51.118;6.940;2023-07-20T04:20:47;3.00;;;2.05;;
33108;SDS011;19481;51.118;6.940;2023-07-20T04:25:49;2.55;;;1.98;;
33108;SDS011;19481;51.118;6.940;2023-07-20T04:30:51;5.90;;;2.40;;
33108;SDS011;19481;51.118;6.940;2023-07-20T04:35:55;3.70;;;2.17;;
33108;SDS011;19481;51.118;6.940;2023-07-20T04:40:56;5.82;;;1.98;;
33108;SDS011;19481;51.118;6.940;2023-07-20T04:45:58;2.97;;;2.03;;
33108;SDS011;19481;51.118;6.940;2023-07-20T04:51:01;6.30;;;2.58;;
33108;SDS011;19481;51.118;6.940;2023-07-20T04:56:03;5.93;;;2.28;;
33108;SDS011;19481;51.118;6.940;2023-07-20T05:01:05;3.78;;;2.33;;
33108;SDS011;19481;51.118;6.940;2023-07-20T05:06:08;3.17;;;2.15;;
33108;SDS011;19481;51.118;6.940;2023-07-20T05:11:09;5.75;;;2.53;;
33108;SDS011;19481;51.118;6.940;2023-07-20T05:16:12;3.88;;;2.80;;
33108;SDS011;19481;51.118;6.940;2023-07-20T05:21:14;3.75;;;2.65;;
33108;SDS011;19481;51.118;6.940;2023-07-20T05:26:16;6.47;;;3.08;;
33108;SDS011;19481;51.118;6.940;2023-07-20T05:31:18;5.88;;;3.03;;
33108;SDS011;19481;51.118;6.940;2023-07-20T05:36:20;6.15;;;3.58;;
33108;SDS011;19481;51.118;6.940;2023-07-20T05:41:22;7.90;;;3.80;;
33108;SDS011;19481;51.118;6.940;2023-07-20T05:46:25;5.05;;;3.60;;
33108;SDS011;19481;51.118;6.940;2023-07-20T05:51:28;4.95;;;3.38;;
33108;SDS011;19481;51.118;6.940;2023-07-20T05:56:30;5.40;;;3.35;;
33108;SDS011;19481;51.118;6.940;2023-07-20T06:01:31;9.93;;;3.72;;
33108;SDS011;19481;51.118;6.940;2023-07-20T06:06:34;9.95;;;4.55;;
33108;SDS011;19481;51.118;6.940;2023-07-20T06:11:36;6.93;;;4.13;;
33108;SDS011;19481;51.118;6.940;2023-07-20T06:16:38;11.20;;;4.75;;
33108;SDS011;19481;51.118;6.940;2023-07-20T06:21:41;11.25;;;5.55;;
33108;SDS011;19481;51.118;6.940;2023-07-20T06:26:42;13.27;;;5.32;;
33108;SDS011;19481;51.118;6.940;2023-07-20T06:31:44;11.35;;;4.72;;
33108;SDS011;19481;51.118;6.940;2023-07-20T06:36:47;9.38;;;5.47;;
33108;SDS011;19481;51.118;6.940;2023-07-20T06:41:48;6.30;;;4.60;;
33108;SDS011;19481;51.118;6.940;2023-07-20T06:46:50;6.22;;;4.88;;
33108;SDS011;19481;51.118;6.940;2023-07-20T06:51:53;7.75;;;4.57;;
33108;SDS011;19481;51.118;6.940;2023-07-20T06:56:55;10.05;;;5.35;;
33108;SDS011;19481;51.118;6.940;2023-07-20T07:01:56;8.35;;;4.50;;
33108;SDS011;19481;51.118;6.940;2023-07-20T07:07:00;6.68;;;4.38;;
33108;SDS011;19481;51.118;6.940;2023-07-20T07:12:04;7.30;;;5.13;;
33108;SDS011;19481;51.118;6.940;2023-07-20T07:17:06;7.25;;;4.47;;
33108;SDS011;19481;51.118;6.940;2023-07-20T07:22:10;6.82;;;4.55;;
33108;SDS011;19481;51.118;6.940;2023-07-20T07:27:11;8.60;;;4.57;;
33108;SDS011;19481;51.118;6.940;2023-07-20T07:32:16;7.32;;;3.90;;
33108;SDS011;19481;51.118;6.940;2023-07-20T07:37:18;4.95;;;3.47;;
33108;SDS011;19481;51.118;6.940;2023-07-20T07:42:20;5.68;;;3.47;;
33108;SDS011;19481;51.118;6.940;2023-07-20T07:47:22;3.78;;;2.58;;
33108;SDS011;19481;51.118;6.940;2023-07-20T07:52:25;3.88;;;1.60;;
33108;SDS011;19481;51.118;6.940;2023-07-20T07:57:27;3.88;;;1.30;;
33108;SDS011;19481;51.118;6.940;2023-07-20T08:02:28;1.98;;;1.40;;
33108;SDS011;19481;51.118;6.940;2023-07-20T08:07:31;3.17;;;2.10;;
33108;SDS011;19481;51.118;6.940;2023-07-20T08:12:33;2.83;;;1.52;;
33108;SDS011;19481;51.118;6.940;2023-07-20T08:17:34;1.88;;;1.10;;
33108;SDS011;19481;51.118;6.940;2023-07-20T08:22:37;2.67;;;1.65;;
33108;SDS011;19481;51.118;6.940;2023-07-20T08:27:39;1.88;;;1.40;;
33108;SDS011;19481;51.118;6.940;2023-07-20T08:32:41;5.30;;;1.10;;
33108;SDS011;19481;51.118;6.940;2023-07-20T08:37:44;2.83;;;1.17;;
33108;SDS011;19481;51.118;6.940;2023-07-20T08:42:45;1.02;;;0.88;;
33108;SDS011;19481;51.118;6.940;2023-07-20T08:47:47;1.20;;;0.85;;
33108;SDS011;19481;51.118;6.940;2023-07-20T08:52:52;1.15;;;0.60;;
33108;SDS011;19481;51.118;6.940;2023-07-20T08:57:55;2.15;;;1.27;;
33108;SDS011;19481;51.118;6.940;2023-07-20T09:02:57;9.73;;;1.10;;
33108;SDS011;19481;51.118;6.940;2023-07-20T09:08:04;1.30;;;1.20;;
33108;SDS011;19481;51.118;6.940;2023-07-20T09:13:05;0.60;;;0.60;;
33108;SDS011;19481;51.118;6.940;2023-07-20T09:18:07;1.20;;;1.10;;
33108;SDS011;19481;51.118;6.940;2023-07-20T09:23:10;1.38;;;0.90;;
33108;SDS011;19481;51.118;6.940;2023-07-20T09:28:11;2.30;;;0.80;;
33108;SDS011;19481;51.118;6.940;2023-07-20T09:33:18;1.77;;;0.47;;
33108;SDS011;19481;51.118;6.940;2023-07-20T09:38:22;0.50;;;0.50;;
33108;SDS011;19481;51.118;6.940;2023-07-20T09:43:24;1.02;;;0.75;;
33108;SDS011;19481;51.118;6.940;2023-07-20T09:48:26;3.97;;;0.60;;
33108;SDS011;19481;51.118;6.940;2023-07-20T09:53:29;1.05;;;0.50;;
33108;SDS011;19481;51.118;6.940;2023-07-20T09:58:33;1.90;;;0.60;;
33108;SDS011;19481;51.118;6.940;2023-07-20T10:03:35;1.00;;;0.90;;
33108;SDS011;19481;51.118;6.940;2023-07-20T10:08:40;1.10;;;0.90;;
33108;SDS011;19481;51.118;6.940;2023-07-20T10:13:44;0.70;;;0.60;;
33108;SDS011;19481;51.118;6.940;2023-07-20T10:18:50;1.02;;;0.85;;
33108;SDS011;19481;51.118;6.940;2023-07-20T10:23:56;1.70;;;0.80;;
33108;SDS011;19481;51.118;6.940;2023-07-20T10:28:58;1.13;;;0.70;;
33108;SDS011;19481;51.118;6.940;2023-07-20T10:34:00;0.40;;;0.40;;
33108;SDS011;19481;51.118;6.940;2023-07-20T10:39:04;0.95;;;0.50;;
33108;SDS011;19481;51.118;6.940;2023-07-20T10:44:07;2.33;;;0.50;;
33108;SDS011;19481;51.118;6.940;2023-07-20T10:49:09;0.85;;;0.60;;
33108;SDS011;19481;51.118;6.940;2023-07-20T10:59:47;0.55;;;0.50;;
33108;SDS011;19481;51.118;6.940;2023-07-20T11:04:49;1.63;;;1.10;;
33108;SDS011;19481;51.118;6.940;2023-07-20T11:09:52;0.70;;;0.70;;
33108;SDS011;19481;51.118;6.940;2023-07-20T11:15:13;1.17;;;0.70;;
33108;SDS011;19481;51.118;6.940;2023-07-20T11:20:14;2.85;;;0.40;;
33108;SDS011;19481;51.118;6.940;2023-07-20T11:25:18;0.63;;;0.40;;
33108;SDS011;19481;51.118;6.940;2023-07-20T11:30:20;0.88;;;0.43;;
33108;SDS011;19481;51.118;6.940;2023-07-20T11:35:22;1.88;;;0.40;;
33108;SDS011;19481;51.118;6.940;2023-07-20T11:40:25;4.40;;;0.50;;
33108;SDS011;19481;51.118;6.940;2023-07-20T11:45:26;0.95;;;0.55;;
33108;SDS011;19481;51.118;6.940;2023-07-20T11:50:38;0.68;;;0.50;;
33108;SDS011;19481;51.118;6.940;2023-07-20T12:00:43;2.15;;;0.60;;
33108;SDS011;19481;51.118;6.940;2023-07-20T12:05:45;0.52;;;0.47;;
33108;SDS011;19481;51.118;6.940;2023-07-20T12:10:48;0.55;;;0.50;;
33108;SDS011;19481;51.118;6.940;2023-07-20T12:15:52;0.98;;;0.50;;
33108;SDS011;19481;51.118;6.940;2023-07-20T12:20:58;1.00;;;0.60;;
33108;SDS011;19481;51.118;6.940;2023-07-20T12:26:02;2.50;;;0.60;;
33108;SDS011;19481;51.118;6.940;2023-07-20T12:31:03;0.43;;;0.43;;
33108;SDS011;19481;51.118;6.940;2023-07-20T12:36:06;0.50;;;0.50;;
33108;SDS011;19481;51.118;6.940;2023-07-20T12:41:09;2.25;;;0.50;;
33108;SDS011;19481;51.118;6.940;2023-07-20T12:46:13;0.55;;;0.55;;
33108;SDS011;19481;51.118;6.940;2023-07-20T12:51:15;0.93;;;0.57;;
33108;SDS011;19481;51.118;6.940;2023-07-20T12:56:18;0.70;;;0.50;;
33108;SDS011;19481;51.118;6.940;2023-07-20T13:01:19;0.77;;;0.45;;
33108;SDS011;19481;51.118;6.940;2023-07-20T13:06:21;2.35;;;0.70;;
33108;SDS011;19481;51.118;6.940;2023-07-20T13:11:24;1.05;;;0.60;;
33108;SDS011;19481;51.118;6.940;2023-07-20T13:16:26;2.15;;;0.65;;
33108;SDS011;19481;51.118;6.940;2023-07-20T13:21:28;0.75;;;0.50;;
33108;SDS011;19481;51.118;6.940;2023-07-20T13:26:30;1.83;;;0.65;;
33108;SDS011;19481;51.118;6.940;2023-07-20T13:31:32;1.55;;;1.45;;
33108;SDS011;19481;51.118;6.940;2023-07-20T13:36:34;0.70;;;0.70;;
33108;SDS011;19481;51.118;6.940;2023-07-20T13:41:37;4.28;;;3.53;;
33108;SDS011;19481;51.118;6.940;2023-07-20T13:46:39;1.58;;;1.42;;
33108;SDS011;19481;51.118;6.940;2023-07-20T13:51:41;1.42;;;1.08;;
33108;SDS011;19481;51.118;6.940;2023-07-20T13:56:44;4.00;;;0.70;;
33108;SDS011;19481;51.118;6.940;2023-07-20T14:01:45;0.60;;;0.60;;
33108;SDS011;19481;51.118;6.940;2023-07-20T14:06:47;0.60;;;0.60;;
33108;SDS011;19481;51.118;6.940;2023-07-20T14:11:50;0.50;;;0.50;;
33108;SDS011;19481;51.118;6.940;2023-07-20T14:16:52;0.50;;;0.50;;
33108;SDS011;19481;51.118;6.940;2023-07-20T14:21:53;3.83;;;1.63;;
33108;SDS011;19481;51.118;6.940;2023-07-20T14:26:56;1.42;;;1.10;;
33108;SDS011;19481;51.118;6.940;2023-07-20T14:31:58;4.20;;;1.65;;
33108;SDS011;19481;51.118;6.940;2023-07-20T14:37:00;1.65;;;0.60;;
33108;SDS011;19481;51.118;6.940;2023-07-20T14:42:03;0.68;;;0.63;;
33108;SDS011;19481;51.118;6.940;2023-07-20T14:47:05;2.03;;;0.65;;
33108;SDS011;19481;51.118;6.940;2023-07-20T14:52:07;1.38;;;0.70;;
33108;SDS011;19481;51.118;6.940;2023-07-20T14:57:10;3.03;;;0.50;;
33108;SDS011;19481;51.118;6.940;2023-07-20T15:02:14;1.25;;;0.60;;
33108;SDS011;19481;51.118;6.940;2023-07-20T15:07:16;5.38;;;0.50;;
33108;SDS011;19481;51.118;6.940;2023-07-20T15:12:21;0.63;;;0.55;;
33108;SDS011;19481;51.118;6.940;2023-07-20T15:17:22;0.50;;;0.50;;
33108;SDS011;19481;51.118;6.940;2023-07-20T15:22:24;1.77;;;0.50;;
33108;SDS011;19481;51.118;6.940;2023-07-20T15:27:27;0.90;;;0.80;;
33108;SDS011;19481;51.118;6.940;2023-07-20T15:32:29;0.60;;;0.50;;
33108;SDS011;19481;51.118;6.940;2023-07-20T15:37:30;0.88;;;0.57;;
33108;SDS011;19481;51.118;6.940;2023-07-20T15:42:33;2.40;;;0.70;;
33108;SDS011;19481;51.118;6.940;2023-07-20T15:47:35;0.60;;;0.60;;
33108;SDS011;19481;51.118;6.940;2023-07-20T15:52:37;0.40;;;0.40;;
33108;SDS011;19481;51.118;6.940;2023-07-20T15:57:40;1.02;;;0.60;;
33108;SDS011;19481;51.118;6.940;2023-07-20T16:02:42;0.60;;;0.60;;
33108;SDS011;19481;51.118;6.940;2023-07-20T16:07:43;0.65;;;0.65;;
33108;SDS011;19481;51.118;6.940;2023-07-20T16:12:47;1.48;;;0.50;;
33108;SDS011;19481;51.118;6.940;2023-07-20T16:17:48;0.50;;;0.50;;
33108;SDS011;19481;51.118;6.940;2023-07-20T16:22:50;0.52;;;0.52;;
33108;SDS011;19481;51.118;6.940;2023-07-20T16:27:53;1.38;;;0.50;;
33108;SDS011;19481;51.118;6.940;2023-07-20T16:32:55;1.48;;;0.50;;
33108;SDS011;19481;51.118;6.940;2023-07-20T16:37:57;0.95;;;0.60;;
33108;SDS011;19481;51.118;6.940;2023-07-20T16:43:00;0.50;;;0.50;;
33108;SDS011;19481;51.118;6.940;2023-07-20T16:48:02;0.60;;;0.60;;
33108;SDS011;19481;51.118;6.940;2023-07-20T16:53:04;0.57;;;0.57;;
33108;SDS011;19481;51.118;6.940;2023-07-20T16:58:07;2.50;;;0.63;;
33108;SDS011;19481;51.118;6.940;2023-07-20T17:03:08;0.55;;;0.55;;
33108;SDS011;19481;51.118;6.940;2023-07-20T17:08:10;0.57;;;0.55;;
33108;SDS011;19481;51.118;6.940;2023-07-20T17:13:13;0.73;;;0.70;;
33108;SDS011;19481;51.118;6.940;2023-07-20T17:18:16;1.05;;;0.73;;
33108;SDS011;19481;51.118;6.940;2023-07-20T17:23:18;0.75;;;0.70;;
33108;SDS011;19481;51.118;6.940;2023-07-20T17:28:21;2.60;;;0.70;;
33108;SDS011;19481;51.118;6.940;2023-07-20T17:33:23;1.13;;;0.73;;
33108;SDS011;19481;51.118;6.940;2023-07-20T17:38:24;2.20;;;2.00;;
33108;SDS011;19481;51.118;6.940;2023-07-20T17:43:27;1.23;;;0.90;;
33108;SDS011;19481;51.118;6.940;2023-07-20T17:48:29;0.82;;;0.68;;
33108;SDS011;19481;51.118;6.940;2023-07-20T17:53:31;1.30;;;0.90;;
33108;SDS011;19481;51.118;6.940;2023-07-20T17:58:34;0.68;;;0.68;;
33108;SDS011;19481;51.118;6.940;2023-07-20T18:03:35;1.10;;;0.60;;
33108;SDS011;19481;51.118;6.940;2023-07-20T18:08:37;4.93;;;0.80;;
33108;SDS011;19481;51.118;6.940;2023-07-20T18:13:42;2.88;;;2.42;;
33108;SDS011;19481;51.118;6.940;2023-07-20T18:18:44;1.27;;;0.80;;
33108;SDS011;19481;51.118;6.940;2023-07-20T18:23:45;1.25;;;0.90;;
33108;SDS011;19481;51.118;6.940;2023-07-20T18:28:48;1.15;;;0.75;;
33108;SDS011;19481;51.118;6.940;2023-07-20T18:33:50;0.57;;;0.57;;
33108;SDS011;19481;51.118;6.940;2023-07-20T18:38:52;1.75;;;0.60;;
33108;SDS011;19481;51.118;6.940;2023-07-20T18:43:55;0.73;;;0.50;;
33108;SDS011;19481;51.118;6.940;2023-07-20T18:48:56;0.68;;;0.68;;
33108;SDS011;19481;51.118;6.940;2023-07-20T18:53:58;1.40;;;0.60;;
33108;SDS011;19481;51.118;6.940;2023-07-20T18:59:01;1.65;;;0.70;;
33108;SDS011;19481;51.118;6.940;2023-07-20T19:04:03;0.60;;;0.60;;
33108;SDS011;19481;51.118;6.940;2023-07-20T19:09:05;0.80;;;0.80;;
33108;SDS011;19481;51.118;6.940;2023-07-20T19:14:08;4.15;;;0.70;;
33108;SDS011;19481;51.118;6.940;2023-07-20T19:19:09;1.50;;;0.73;;
33108;SDS011;19481;51.118;6.940;2023-07-20T19:24:11;0.80;;;0.70;;
33108;SDS011;19481;51.118;6.940;2023-07-20T19:29:14;1.35;;;0.80;;
33108;SDS011;19481;51.118;6.940;2023-07-20T19:34:16;1.35;;;1.00;;
33108;SDS011;19481;51.118;6.940;2023-07-20T19:39:18;1.42;;;1.17;;
33108;SDS011;19481;51.118;6.940;2023-07-20T19:44:21;1.27;;;1.10;;
33108;SDS011;19481;51.118;6.940;2023-07-20T19:49:22;3.00;;;1.95;;
33108;SDS011;19481;51.118;6.940;2023-07-20T19:54:24;1.52;;;1.42;;
33108;SDS011;19481;51.118;6.940;2023-07-20T19:59:27;2.20;;;1.20;;
33108;SDS011;19481;51.118;6.940;2023-07-20T20:04:28;2.50;;;1.13;;
33108;SDS011;19481;51.118;6.940;2023-07-20T20:09:30;1.33;;;1.23;;
33108;SDS011;19481;51.118;6.940;2023-07-20T20:14:33;1.95;;;1.45;;
33108;SDS011;19481;51.118;6.940;2023-07-20T20:19:35;2.10;;;1.60;;
33108;SDS011;19481;51.118;6.940;2023-07-20T20:24:36;2.30;;;1.85;;
33108;SDS011;19481;51.118;6.940;2023-07-20T20:29:39;2.47;;;1.77;;
33108;SDS011;19481;51.118;6.940;2023-07-20T20:34:41;4.43;;;2.60;;
33108;SDS011;19481;51.118;6.940;2023-07-20T20:39:42;3.17;;;2.47;;
33108;SDS011;19481;51.118;6.940;2023-07-20T20:44:45;2.42;;;1.33;;
33108;SDS011;19481;51.118;6.940;2023-07-20T20:49:47;4.80;;;1.70;;
33108;SDS011;19481;51.118;6.940;2023-07-20T20:54:49;1.10;;;0.98;;
33108;SDS011;19481;51.118;6.940;2023-07-20T20:59:52;1.23;;;1.10;;
33108;SDS011;19481;51.118;6.940;2023-07-20T21:04:54;1.73;;;0.95;;
33108;SDS011;19481;51.118;6.940;2023-07-20T21:09:55;4.20;;;1.55;;
33108;SDS011;19481;51.118;6.940;2023-07-20T21:14:59;2.83;;;1.60;;
33108;SDS011;19481;51.118;6.940;2023-07-20T21:25:07;2.47;;;2.28;;
33108;SDS011;19481;51.118;6.940;2023-07-20T21:30:11;2.72;;;2.08;;
33108;SDS011;19481;51.118;6.940;2023-07-20T21:35:13;3.42;;;2.53;;
33108;SDS011;19481;51.118;6.940;2023-07-20T21:40:15;2.10;;;2.00;;
33108;SDS011;19481;51.118;6.940;2023-07-20T21:45:18;2.70;;;2.50;;
33108;SDS011;19481;51.118;6.940;2023-07-20T21:50:22;2.42;;;2.22;;
33108;SDS011;19481;51.118;6.940;2023-07-20T21:55:24;2.95;;;2.58;;
33108;SDS011;19481;51.118;6.940;2023-07-20T22:00:27;3.60;;;2.78;;
33108;SDS011;19481;51.118;6.940;2023-07-20T22:05:28;3.83;;;3.20;;
33108;SDS011;19481;51.118;6.940;2023-07-20T22:10:30;3.30;;;2.45;;
33108;SDS011;19481;51.118;6.940;2023-07-20T22:15:34;2.45;;;2.25;;
33108;SDS011;19481;51.118;6.940;2023-07-20T22:20:35;4.70;;;2.95;;
33108;SDS011;19481;51.118;6.940;2023-07-20T22:25:37;2.97;;;2.72;;
33108;SDS011;19481;51.118;6.940;2023-07-20T22:30:40;5.60;;;3.20;;
33108;SDS011;19481;51.118;6.940;2023-07-20T22:35:42;3.67;;;2.65;;
33108;SDS011;19481;51.118;6.940;2023-07-20T22:40:43;3.42;;;2.83;;
33108;SDS011;19481;51.118;6.940;2023-07-20T22:45:46;5.47;;;4.00;;
33108;SDS011;19481;51.118;6.940;2023-07-20T22:50:49;3.58;;;2.83;;
33108;SDS011;19481;51.118;6.940;2023-07-20T22:55:52;4.38;;;2.90;;
33108;SDS011;19481;51.118;6.940;2023-07-20T23:00:55;3.55;;;3.25;;
33108;SDS011;19481;51.118;6.940;2023-07-20T23:05:56;4.20;;;3.60;;
33108;SDS011;19481;51.118;6.940;2023-07-20T23:10:58;5.97;;;3.38;;
33108;SDS011;19481;51.118;6.940;2023-07-20T23:16:01;4.20;;;3.80;;
33108;SDS011;19481;51.118;6.940;2023-07-20T23:21:03;4.40;;;3.70;;
33108;SDS011;19481;51.118;6.940;2023-07-20T23:26:07;3.45;;;3.15;;
33108;SDS011;19481;51.118;6.940;2023-07-20T23:31:12;3.72;;;3.15;;
33108;SDS011;19481;51.118;6.940;2023-07-20T23:36:14;3.53;;;3.10;;
33108;SDS011;19481;51.118;6.940;2023-07-20T23:41:16;5.00;;;2.78;;
33108;SDS011;19481;51.118;6.940;2023-07-20T23:46:18;5.30;;;2.88;;
33108;SDS011;19481;51.118;6.940;2023-07-20T23:51:23;3.53;;;2.40;;
33108;SDS011;19481;51.118;6.940;2023-07-20T23:56:24;3.22;;;2.63;;
